Baker: Past 24 Hour Conditions

 

Resolute Airport

12:00 AM CDT 01 October 2014
This table is a summary of hourly weather conditions for the past 24 hours.
Date / Time
(CDT)
Wind(knots) Conditions Visibility(km) Pressure(kPa) Air tempC) Relative humidity(%) Dew pointC) Wind Chill
01 October 2014
0:00 NW 27 Drifting Snow 24 101.8 -10 77 -13 -22
30 September 2014
23:00 NW 23 gust 29 Drifting Snow 24 101.8 -11 79 -13 -22
22:00 NW 30 Drifting Snow 24 101.7 -10 79 -13 -23
21:00 NW 22 Mainly Clear 24 101.8 -11 77 -14 -22
20:00 NW 14 Mainly Clear 24 101.8 -11 81 -14 -21
19:00 NW 18 gust 23 Mainly Clear 24 101.8 -11 82 -13 -21
18:00 WNW 15 gust 22 Mainly Sunny 24 101.8 -10 82 -13 -20
17:00 NW 18 gust 25 Drifting Snow 24 101.7 -10 80 -13 -21
16:00 NNW 26 Drifting Snow 24 101.7 -10 82 -13 -22
15:00 NNW 29 gust 35 Drifting Snow 24 101.7 -10 82 -13 -23
14:00 NNW 24 gust 30 Drifting Snow 19 101.6 -10 83 -13 -22
13:00 NNW 28 Blowing Snow 10 101.6 -11 84 -13 -23
12:00 NNW 18 Mainly Sunny 24 101.7 -12 85 -14 -23
11:00 NW 22 gust 29 Drifting Snow 24 101.7 -12 84 -14 -24
10:00 NNW 16 gust 25 Drifting Snow 24 101.8 -12 84 -14 -23
9:00 NNW 24 gust 30 Drifting Snow 24 101.8 -12 85 -14 -24
8:00 NNW 20 Sunny 24 101.8 -13 85 -15 -24
7:00 N 21 Drifting Snow 24 101.8 -13 85 -15 -24
6:00 NNW 16 gust 21 Drifting Snow 24 101.9 -12 84 -14 -22
5:00 N 21 Drifting Snow 24 101.9 -12 86 -14 -23
4:00 NW 19 Light Snow 10 102.0 -10 87 -12 -21
3:00 NNW 21 gust 26 Light Snow 8 101.9 -9 88 -10 -19
2:00 NNW 19 gust 25 N/A N/A 101.8 -8 90 -9 -18
1:00 NNW 28 Light Snow 13 101.9 -8 88 -10 -19
0:00 NNW 31 Light Snow 16 101.9 -8 89 -10 -20
 
Map of Arctic - Eastern Arctic marine weather areas Baker Lake Airport Chesterfield Inlet Airport Coral Harbour Airport Gjoa Haven Airport Kugaaruk Airport Rankin Inlet Airport Shepherd Bay Airport Whale Cove Airport Arctic Bay Brevoort Island Qikiqtarjuaq Airport Cape Dorset Airport Cape Dyer Cape Hooper Clyde Airport Grise Fiord Airport Hall Beach Airport Igloolik Airport Iqaluit Airport Longstaff Bluff Pangnirtung Airport Pond Inlet Airport Repulse Bay Airport Resolute Airport Resolution Island Rowley Island Airport Taloyoak Airport Wager Bay Akulivik Airport Ivujivik Airport Puvirnituq Airport Kangiqsujuaq Airport Kangirsuk Airport Quaqtaq Airport Tasiujaq Airport Cape Kakkiviak Cape Kiglapait Nain Airport Saglek Cape Mercy Kimmirut Airport Aupaluk Airport Salluit Airport Kangiqsualujjuaq Airport Fort Ross
Legend: buoyBuoy land stationLand Station